»·PEaware :: N369B KSMO-KPSP

N369B :: KSMO-KPSP

FLIGHT INFORMATION

Flight Status: Arrived
Operator: Privately registered:
United States
More flights under this callsign
Pilot: Danny S. (32185)
Aircraft: Cessna 700 Citation Longitude
(C700)
More flights by this aircraft type
Origin: KSMO Santa Monica Mun
United States
Destination: KPSP Palm Springs Intl
United States
More flights between these airports :: More routes between these airports
Route: SMO VNY V186 NIKKL V64 TRM
File this flight plan on PilotEdge
Remarks:
Altitude:
(Current/Filed)
12,000ft
Speed:
(Current/Filed)
350kts
Departed: 10-Jan-21 02:15 PM
Arrived: 10-Jan-21 02:54 PM
Distance/Time
Traveled:
97nm/0:39
Distance/Time
To Go:
Arrived

Flight Plot

Page will automatically refresh every two minutes.

Flight plan parsing failed; only flown route is shown


Map Options




Map Legend


Flown Route
Filed Route
Departure Airport
Arrival Airport
Navaid (VOR, NDB)
Fix

Horizontal Profiles

Position Reports

Time Latitude Longitude Heading Altitude Ground
Speed
10-Jan-21 14:00 0.000408 0.013975 0 3ft 0kts
10-Jan-21 14:01 34.019539 -118.445422 115 148ft 0kts
10-Jan-21 14:02 34.019539 -118.445422 115 173ft 4kts
10-Jan-21 14:03 34.019534 -118.445411 115 172ft 0kts
10-Jan-21 14:04 34.019534 -118.445411 115 172ft 0kts
10-Jan-21 14:05 34.019534 -118.445411 115 172ft 0kts
10-Jan-21 14:06 34.019534 -118.445411 115 172ft 0kts
10-Jan-21 14:07 34.019534 -118.445411 115 172ft 0kts
10-Jan-21 14:08 34.019534 -118.445411 115 172ft 0kts
10-Jan-21 14:09 34.019534 -118.445411 115 172ft 0kts
10-Jan-21 14:10 34.019534 -118.445411 115 172ft 0kts
10-Jan-21 14:11 34.019497 -118.445369 152 172ft 0kts
10-Jan-21 14:12 34.019471 -118.445363 172 172ft 0kts
10-Jan-21 14:13 34.019738 -118.445537 6 173ft 7kts
10-Jan-21 14:13 34.020390 -118.445811 302 176ft 10kts
10-Jan-21 14:14 33.997496 -118.472535 222 1027ft 198kts
10-Jan-21 14:16 33.998666 -118.531205 295 2948ft 166kts
10-Jan-21 14:16 34.005607 -118.575573 260 4626ft 168kts
10-Jan-21 14:17 33.950788 -118.582934 172 4991ft 261kts
10-Jan-21 14:18 33.883734 -118.568805 172 8353ft 232kts
10-Jan-21 14:19 33.810643 -118.553120 171 8982ft 305kts
10-Jan-21 14:20 33.734679 -118.536877 171 8991ft 258kts
10-Jan-21 14:21 33.683990 -118.484620 123 9000ft 252kts
10-Jan-21 14:22 33.646919 -118.413295 122 9000ft 251kts
10-Jan-21 14:23 33.667389 -118.347154 42 9016ft 247kts
10-Jan-21 14:24 33.705573 -118.277973 63 8999ft 250kts
10-Jan-21 14:25 33.732294 -118.200425 67 8996ft 251kts
10-Jan-21 14:26 33.759609 -118.122290 66 8999ft 261kts
10-Jan-21 14:27 33.778911 -118.036930 88 9003ft 275kts
10-Jan-21 14:28 33.774866 -117.944363 93 9001ft 281kts
10-Jan-21 14:29 33.768205 -117.851886 95 9550ft 261kts
10-Jan-21 14:30 33.762295 -117.775592 95 11472ft 199kts
10-Jan-21 14:31 33.755987 -117.693443 95 12924ft 312kts
10-Jan-21 14:32 33.746560 -117.571785 95 13037ft 402kts
10-Jan-21 14:33 33.735673 -117.433879 95 12999ft 411kts
10-Jan-21 14:34 33.724904 -117.299133 96 12996ft 401kts
10-Jan-21 14:35 33.714285 -117.165489 95 13000ft 404kts
10-Jan-21 14:36 33.703046 -117.030362 94 12998ft 407kts
10-Jan-21 14:37 33.691462 -116.894574 96 13004ft 412kts
10-Jan-21 14:38 33.680133 -116.757074 98 13001ft 414kts
10-Jan-21 14:39 33.666084 -116.621133 95 11860ft 367kts
10-Jan-21 14:40 33.666739 -116.517358 72 9179ft 276kts
10-Jan-21 14:41 33.703676 -116.444428 47 7145ft 257kts
10-Jan-21 14:42 33.745594 -116.395515 41 7459ft 202kts
10-Jan-21 14:43 33.793671 -116.347669 24 7512ft 236kts
10-Jan-21 14:44 33.821474 -116.283874 111 6576ft 253kts
10-Jan-21 14:45 33.774083 -116.226843 165 5374ft 244kts
10-Jan-21 14:46 33.713884 -116.229749 209 4174ft 191kts
10-Jan-21 14:47 33.677998 -116.264468 244 4107ft 166kts
10-Jan-21 14:48 33.667368 -116.323921 269 4118ft 205kts
10-Jan-21 14:49 33.695427 -116.384892 320 4106ft 221kts
10-Jan-21 14:50 33.744898 -116.429262 320 2517ft 165kts
10-Jan-21 14:51 33.775128 -116.457512 319 1485ft 141kts
10-Jan-21 14:52 33.805700 -116.485827 320 722ft 126kts
10-Jan-21 14:53 33.826584 -116.504849 324 423ft 10kts
10-Jan-21 14:54 33.827917 -116.507196 181 433ft 0kts
10-Jan-21 14:55 33.826599 -116.506959 152 431ft 15kts
10-Jan-21 14:56 33.825819 -116.508334 60 430ft 12kts
10-Jan-21 14:57 33.826298 -116.508469 272 432ft 0kts
10-Jan-21 14:58 33.826298 -116.508469 272 432ft 0kts

Navigation Log

Ident Type
Flight plan parsing failed, navigation log unavailable